createdAt,value
2018-12-23T00:00:32.543Z,4.70
2018-12-23T00:03:00.261Z,4.70
2018-12-23T00:05:27.836Z,4.70
2018-12-23T00:07:55.529Z,4.70
2018-12-23T00:10:23.241Z,4.60
2018-12-23T00:12:50.864Z,4.70
2018-12-23T00:15:18.440Z,4.70
2018-12-23T00:17:45.986Z,4.70
2018-12-23T00:20:13.599Z,4.70
2018-12-23T00:22:41.208Z,4.70
2018-12-23T00:25:08.841Z,4.70
2018-12-23T00:27:36.399Z,4.60
2018-12-23T00:30:05.084Z,4.60
2018-12-23T00:32:32.775Z,4.50
2018-12-23T00:35:00.349Z,4.50
2018-12-23T00:37:27.951Z,4.50
2018-12-23T00:39:55.524Z,4.50
2018-12-23T00:42:23.212Z,4.50
2018-12-23T00:44:50.895Z,4.40
2018-12-23T00:47:18.501Z,4.40
2018-12-23T00:49:46.111Z,4.40
2018-12-23T00:52:13.723Z,4.40
2018-12-23T00:54:41.338Z,4.40
2018-12-23T00:57:08.938Z,4.50
2018-12-23T00:59:36.491Z,4.40
2018-12-23T01:02:04.226Z,4.40
2018-12-23T01:04:31.793Z,4.40
2018-12-23T01:06:59.499Z,4.40
2018-12-23T01:09:27.109Z,4.40
2018-12-23T01:11:54.714Z,4.40
2018-12-23T01:14:22.315Z,4.40
2018-12-23T01:16:49.932Z,4.40
2018-12-23T01:19:17.603Z,4.40
2018-12-23T01:21:45.208Z,4.30
2018-12-23T01:24:12.756Z,4.40
2018-12-23T01:26:40.344Z,4.40
2018-12-23T01:29:07.898Z,4.40
2018-12-23T01:31:35.520Z,4.40
2018-12-23T01:34:05.293Z,4.40
2018-12-23T01:36:32.724Z,4.40
2018-12-23T01:39:00.322Z,4.40
2018-12-23T01:41:27.899Z,4.40
2018-12-23T01:43:55.447Z,4.40
2018-12-23T01:46:23.018Z,4.40
2018-12-23T01:48:50.584Z,4.40
2018-12-23T01:51:18.172Z,4.40
2018-12-23T01:53:45.744Z,4.50
2018-12-23T01:56:13.401Z,4.50
2018-12-23T01:58:40.968Z,4.50
2018-12-23T02:01:08.636Z,4.50
2018-12-23T02:03:36.298Z,4.50
2018-12-23T02:06:03.952Z,4.50
2018-12-23T02:08:31.606Z,4.60
2018-12-23T02:10:59.163Z,4.60
2018-12-23T02:13:26.835Z,4.60
2018-12-23T02:15:54.448Z,4.60
2018-12-23T02:18:22.027Z,4.60
2018-12-23T02:20:49.733Z,4.70
2018-12-23T02:23:17.335Z,4.60
2018-12-23T02:25:44.996Z,4.70
2018-12-23T02:28:12.602Z,4.70
2018-12-23T02:30:40.190Z,4.70
2018-12-23T02:33:07.827Z,4.70
2018-12-23T02:35:35.405Z,4.70
2018-12-23T02:38:03.056Z,4.70
2018-12-23T02:40:30.724Z,4.80
2018-12-23T02:42:58.388Z,4.80
2018-12-23T02:45:25.987Z,4.80
2018-12-23T02:47:53.700Z,4.80
2018-12-23T02:50:21.423Z,4.80
2018-12-23T02:52:48.999Z,4.80
2018-12-23T02:55:16.641Z,4.80
2018-12-23T02:57:44.227Z,4.80
2018-12-23T03:00:11.874Z,4.80
2018-12-23T03:02:39.444Z,4.90
2018-12-23T03:05:07.162Z,4.90
2018-12-23T03:07:34.784Z,4.80
2018-12-23T03:10:02.449Z,4.90
2018-12-23T03:12:30.277Z,4.90
2018-12-23T03:14:57.960Z,4.90
2018-12-23T03:17:25.619Z,5.00
2018-12-23T03:19:53.279Z,4.90
2018-12-23T03:22:21.031Z,5.00
2018-12-23T03:24:48.633Z,5.00
2018-12-23T03:27:16.190Z,5.00
2018-12-23T03:29:43.771Z,5.00
2018-12-23T03:32:11.341Z,5.00
2018-12-23T03:34:38.918Z,5.00
2018-12-23T03:37:06.549Z,5.10
2018-12-23T03:39:34.158Z,5.10
2018-12-23T03:42:01.771Z,5.10
2018-12-23T03:44:29.435Z,5.10
2018-12-23T03:46:57.011Z,5.10
2018-12-23T03:49:24.683Z,5.10
2018-12-23T03:51:52.319Z,5.20
2018-12-23T03:54:19.895Z,5.20
2018-12-23T03:56:47.489Z,5.10
2018-12-23T03:59:15.067Z,5.20
2018-12-23T04:01:42.651Z,5.20
2018-12-23T04:04:10.272Z,5.20
2018-12-23T04:06:37.867Z,5.20
2018-12-23T04:09:05.934Z,5.20
2018-12-23T04:11:33.502Z,5.20
2018-12-23T04:14:01.107Z,5.30
2018-12-23T04:16:29.173Z,5.30
2018-12-23T04:18:56.881Z,5.30
2018-12-23T04:21:24.435Z,5.30
2018-12-23T04:23:52.025Z,5.30
2018-12-23T04:26:19.659Z,5.40
2018-12-23T04:28:47.261Z,5.40
2018-12-23T04:31:14.973Z,5.30
2018-12-23T04:33:42.633Z,5.30
2018-12-23T04:36:10.221Z,5.40
2018-12-23T04:38:37.841Z,5.40
2018-12-23T04:41:05.403Z,5.40
2018-12-23T04:43:32.999Z,5.40
2018-12-23T04:46:00.739Z,5.50
2018-12-23T04:48:28.349Z,5.50
2018-12-23T04:50:55.969Z,5.50
2018-12-23T04:53:23.706Z,5.50
2018-12-23T04:55:51.274Z,5.50
2018-12-23T04:58:18.847Z,5.50
2018-12-23T05:00:46.480Z,5.60
2018-12-23T05:03:14.051Z,5.60
2018-12-23T05:05:41.623Z,5.60
2018-12-23T05:08:09.187Z,5.60
2018-12-23T05:10:36.905Z,5.60
2018-12-23T05:13:04.455Z,5.60
2018-12-23T05:15:32.157Z,5.70
2018-12-23T05:17:59.802Z,5.60
2018-12-23T05:20:27.398Z,5.70
2018-12-23T05:22:54.947Z,5.70
2018-12-23T05:25:22.568Z,5.70
2018-12-23T05:27:50.111Z,5.70
2018-12-23T05:30:17.708Z,5.70
2018-12-23T05:32:45.282Z,5.70
2018-12-23T05:35:12.878Z,5.70
2018-12-23T05:37:40.437Z,6.20
2018-12-23T05:40:08.088Z,5.80
2018-12-23T05:42:35.663Z,5.80
2018-12-23T05:45:03.724Z,5.80
2018-12-23T05:47:31.288Z,5.80
2018-12-23T05:49:58.899Z,5.80
2018-12-23T05:52:26.454Z,5.80
2018-12-23T05:54:54.142Z,5.90
2018-12-23T05:57:22.013Z,5.90
2018-12-23T05:59:49.694Z,5.90
2018-12-23T06:02:17.258Z,5.90
2018-12-23T06:04:44.841Z,5.90
2018-12-23T06:07:12.453Z,6.10
2018-12-23T06:09:40.105Z,6.00
2018-12-23T06:12:07.695Z,6.10
2018-12-23T06:14:35.465Z,6.10
2018-12-23T06:17:03.133Z,6.10
2018-12-23T06:19:30.743Z,6.10
2018-12-23T06:21:58.339Z,6.20
2018-12-23T06:24:25.972Z,6.20
2018-12-23T06:26:53.543Z,6.20
2018-12-23T06:29:21.125Z,6.20
2018-12-23T06:31:48.765Z,6.20
2018-12-23T06:34:16.431Z,6.20
2018-12-23T06:36:44.016Z,6.20
2018-12-23T06:39:11.562Z,6.20
2018-12-23T06:41:39.287Z,6.20
2018-12-23T06:44:06.832Z,6.20
2018-12-23T06:46:34.418Z,6.20
2018-12-23T06:49:01.990Z,6.20
2018-12-23T06:51:29.586Z,6.30
2018-12-23T06:53:57.314Z,6.30
2018-12-23T06:56:24.897Z,6.20
2018-12-23T06:58:52.468Z,6.20
2018-12-23T07:01:20.098Z,6.20
2018-12-23T07:03:47.738Z,6.20
2018-12-23T07:06:15.356Z,6.20
2018-12-23T07:08:43.001Z,6.20
2018-12-23T07:11:10.749Z,6.20
2018-12-23T07:13:38.397Z,6.20
2018-12-23T07:16:05.980Z,6.20
2018-12-23T07:18:33.548Z,6.20
2018-12-23T07:21:01.123Z,6.20
2018-12-23T07:23:28.746Z,6.20
2018-12-23T07:25:56.417Z,6.20
2018-12-23T07:28:23.972Z,6.20
2018-12-23T07:30:51.675Z,6.20
2018-12-23T07:33:19.237Z,6.20
2018-12-23T07:35:46.800Z,6.20
2018-12-23T07:38:14.438Z,6.30
2018-12-23T07:40:42.018Z,6.30
2018-12-23T07:43:09.680Z,6.30
2018-12-23T07:45:37.240Z,6.30
2018-12-23T07:48:04.813Z,6.30
2018-12-23T07:50:32.364Z,6.30
2018-12-23T07:52:59.930Z,6.30
2018-12-23T07:55:27.483Z,6.30
2018-12-23T07:57:55.106Z,6.30
2018-12-23T08:00:22.700Z,6.40
2018-12-23T08:02:50.315Z,6.30
2018-12-23T08:05:17.898Z,6.40
2018-12-23T08:07:45.548Z,6.40
2018-12-23T08:10:13.114Z,6.40
2018-12-23T08:12:40.711Z,6.40
2018-12-23T08:15:08.322Z,6.40
2018-12-23T08:17:35.909Z,6.40
2018-12-23T08:20:03.799Z,6.40
2018-12-23T08:22:31.364Z,6.40
2018-12-23T08:24:58.935Z,6.40
2018-12-23T08:27:26.689Z,6.40
2018-12-23T08:29:54.294Z,6.50
2018-12-23T08:32:21.926Z,6.50
2018-12-23T08:34:49.567Z,6.60
2018-12-23T08:37:17.334Z,6.60
2018-12-23T08:39:44.938Z,6.60
2018-12-23T08:42:12.559Z,6.60
2018-12-23T08:44:40.289Z,6.60
2018-12-23T08:47:07.868Z,6.70
2018-12-23T08:49:35.451Z,6.70
2018-12-23T08:52:03.019Z,6.80
2018-12-23T08:54:30.819Z,6.80
2018-12-23T08:56:58.688Z,6.80
2018-12-23T08:59:26.460Z,6.80
2018-12-23T09:01:54.286Z,6.80
2018-12-23T09:04:21.903Z,6.80
2018-12-23T09:06:49.491Z,6.80
2018-12-23T09:09:17.105Z,6.90
2018-12-23T09:11:44.681Z,6.90
2018-12-23T09:14:12.250Z,6.90
2018-12-23T09:16:39.811Z,7.00
2018-12-23T09:19:07.501Z,7.00
2018-12-23T09:21:35.119Z,7.20
2018-12-23T09:24:02.682Z,7.40
2018-12-23T09:26:30.222Z,7.50
2018-12-23T09:28:57.834Z,7.50
2018-12-23T09:31:25.382Z,7.50
2018-12-23T09:33:53.020Z,7.40
2018-12-23T09:36:20.583Z,7.30
2018-12-23T09:38:48.240Z,7.60
2018-12-23T09:41:15.905Z,7.90
2018-12-23T09:43:43.484Z,7.90
2018-12-23T09:46:11.080Z,7.90
2018-12-23T09:48:38.646Z,8.00
2018-12-23T09:51:06.333Z,7.90
2018-12-23T09:53:34.006Z,7.80
2018-12-23T09:56:01.654Z,7.70
2018-12-23T09:58:29.258Z,7.60
2018-12-23T10:00:56.890Z,7.50
2018-12-23T10:03:24.450Z,7.50
2018-12-23T10:05:52.061Z,7.50
2018-12-23T10:08:19.701Z,7.50
2018-12-23T10:10:47.289Z,7.40
2018-12-23T10:13:14.968Z,7.50
2018-12-23T10:15:42.554Z,7.50
2018-12-23T10:18:10.123Z,7.50
2018-12-23T10:20:37.781Z,7.50
2018-12-23T10:23:05.341Z,7.50
2018-12-23T10:25:32.932Z,7.50
2018-12-23T10:28:00.561Z,7.40
2018-12-23T10:30:28.295Z,7.50
2018-12-23T10:32:55.881Z,7.50
2018-12-23T10:35:23.550Z,7.50
2018-12-23T10:37:51.177Z,7.50
2018-12-23T10:40:18.852Z,7.50
2018-12-23T10:42:46.463Z,7.50
2018-12-23T10:45:14.039Z,7.50
2018-12-23T10:47:41.740Z,7.50
2018-12-23T10:50:09.522Z,7.50
2018-12-23T10:52:37.072Z,7.50
2018-12-23T10:55:04.815Z,7.50
2018-12-23T10:57:32.387Z,7.50
2018-12-23T11:00:00.039Z,7.50
2018-12-23T11:02:27.750Z,7.50
2018-12-23T11:04:55.379Z,7.60
2018-12-23T11:07:22.939Z,7.60
2018-12-23T11:09:50.558Z,7.60
2018-12-23T11:12:18.182Z,7.60
2018-12-23T11:14:49.222Z,7.60
2018-12-23T11:17:16.879Z,7.50
2018-12-23T11:19:44.561Z,7.60
2018-12-23T11:22:12.322Z,7.60
2018-12-23T11:24:40.128Z,7.60
2018-12-23T11:27:07.732Z,7.50
2018-12-23T11:29:35.359Z,7.60
2018-12-23T11:32:02.935Z,7.50
2018-12-23T11:34:30.567Z,7.40
2018-12-23T11:36:58.242Z,7.40
2018-12-23T11:39:25.965Z,7.40
2018-12-23T11:41:53.632Z,7.40
2018-12-23T11:44:21.458Z,7.40
2018-12-23T11:46:49.085Z,7.40
2018-12-23T11:49:16.775Z,7.40
2018-12-23T11:51:44.448Z,7.30
2018-12-23T11:54:12.237Z,7.40
2018-12-23T11:56:39.836Z,7.40
2018-12-23T11:59:07.473Z,7.40
2018-12-23T12:01:35.286Z,7.40
2018-12-23T12:04:02.890Z,7.50
2018-12-23T12:06:30.525Z,7.50
2018-12-23T12:08:58.104Z,7.40
2018-12-23T12:11:25.837Z,7.50
2018-12-23T12:13:53.437Z,7.50
2018-12-23T12:16:21.058Z,7.50
2018-12-23T12:18:48.639Z,7.40
2018-12-23T12:21:16.248Z,7.40
2018-12-23T12:23:43.872Z,7.30
2018-12-23T12:26:11.596Z,7.40
2018-12-23T12:28:39.354Z,7.30
2018-12-23T12:31:07.023Z,7.30
2018-12-23T12:33:34.916Z,7.20
2018-12-23T12:36:02.501Z,7.20
2018-12-23T12:38:30.078Z,7.20
2018-12-23T12:40:57.777Z,7.20
2018-12-23T12:43:25.381Z,7.30
2018-12-23T12:46:00.315Z,7.20
2018-12-23T12:48:22.708Z,7.20
2018-12-23T12:50:50.372Z,7.10
2018-12-23T12:53:18.130Z,6.90
2018-12-23T12:55:45.999Z,6.80
2018-12-23T12:58:13.661Z,6.80
2018-12-23T13:00:41.269Z,6.90
2018-12-23T13:03:09.002Z,6.90
2018-12-23T13:05:36.651Z,6.90
2018-12-23T13:08:04.224Z,6.90
2018-12-23T13:10:32.026Z,6.90
2018-12-23T13:12:59.697Z,6.90
2018-12-23T13:15:27.359Z,6.90
2018-12-23T13:17:55.894Z,6.90
2018-12-23T13:20:23.439Z,6.90
2018-12-23T13:22:51.055Z,6.90
2018-12-23T13:25:19.608Z,7.00
2018-12-23T13:27:47.186Z,7.10
2018-12-23T13:30:14.774Z,7.10
2018-12-23T13:41:39.442Z,7.10
2018-12-23T13:48:19.252Z,7.10
2018-12-23T13:51:09.474Z,7.10
2018-12-23T13:53:43.825Z,7.10
2018-12-23T13:56:33.563Z,7.10
2018-12-23T13:59:05.338Z,7.10
2018-12-23T14:02:04.239Z,7.10
2018-12-23T14:04:36.096Z,7.20
2018-12-23T14:07:25.812Z,7.20
2018-12-23T14:10:00.457Z,7.30
2018-12-23T14:12:29.178Z,7.30
2018-12-23T14:14:57.870Z,7.30
2018-12-23T14:17:26.583Z,7.40
2018-12-23T14:19:55.280Z,7.30
2018-12-23T14:22:24.038Z,7.30
2018-12-23T14:24:52.758Z,7.30
2018-12-23T14:27:21.422Z,7.40
2018-12-23T14:29:50.479Z,7.40
2018-12-23T14:32:19.203Z,7.30
2018-12-23T14:34:47.963Z,7.30
2018-12-23T14:37:16.762Z,7.20
2018-12-23T14:39:45.450Z,7.20
2018-12-23T14:42:14.581Z,7.20
2018-12-23T14:44:43.871Z,7.10
2018-12-23T14:47:12.868Z,7.10
2018-12-23T14:49:41.592Z,7.10
2018-12-23T14:52:10.284Z,7.10
2018-12-23T14:54:39.021Z,7.10
2018-12-23T14:57:08.037Z,7.10
2018-12-23T14:59:36.801Z,7.10
2018-12-23T15:02:05.490Z,7.10
2018-12-23T15:04:34.199Z,7.10
2018-12-23T15:07:02.898Z,7.10
2018-12-23T15:09:34.455Z,7.10
2018-12-23T15:12:01.971Z,7.10
2018-12-23T15:14:30.675Z,7.10
2018-12-23T15:16:59.377Z,7.00
2018-12-23T15:19:28.265Z,7.00
2018-12-23T15:21:57.209Z,7.00
2018-12-23T15:24:26.251Z,7.00
2018-12-23T15:26:54.943Z,7.10
2018-12-23T15:29:23.701Z,7.00
2018-12-23T15:31:52.456Z,7.00
2018-12-23T15:34:21.156Z,6.90
2018-12-23T15:36:49.845Z,7.00
2018-12-23T15:39:18.571Z,7.00
2018-12-23T15:41:47.318Z,7.00
2018-12-23T15:44:16.049Z,7.00
2018-12-23T15:46:44.777Z,7.00
2018-12-23T15:49:13.502Z,7.00
2018-12-23T15:51:42.181Z,7.00
2018-12-23T15:54:11.120Z,7.00
2018-12-23T15:56:39.816Z,7.10
2018-12-23T15:59:08.529Z,7.10
2018-12-23T16:01:37.212Z,7.10
2018-12-23T16:04:05.941Z,7.00
2018-12-23T16:06:34.640Z,7.00
2018-12-23T16:09:04.555Z,7.00
2018-12-23T16:11:33.226Z,6.90
2018-12-23T16:14:01.920Z,6.90
2018-12-23T16:16:30.634Z,6.90
2018-12-23T16:18:59.871Z,6.90
2018-12-23T16:21:28.695Z,6.90
2018-12-23T16:23:57.384Z,6.80
2018-12-23T16:26:26.098Z,6.80
2018-12-23T16:28:55.078Z,6.80
2018-12-23T16:31:23.808Z,6.80
2018-12-23T16:33:52.518Z,6.80
2018-12-23T16:36:21.271Z,6.80
2018-12-23T16:38:50.047Z,6.80
2018-12-23T16:41:19.128Z,6.80
2018-12-23T16:43:47.839Z,6.70
2018-12-23T16:46:17.251Z,6.80
2018-12-23T16:48:45.986Z,6.70
2018-12-23T16:51:14.732Z,6.70
2018-12-23T16:53:43.619Z,6.70
2018-12-23T16:56:12.327Z,6.70
2018-12-23T16:58:41.613Z,6.70
2018-12-23T17:01:10.553Z,6.70
2018-12-23T17:03:39.890Z,6.70
2018-12-23T17:06:08.575Z,6.70
2018-12-23T17:08:37.650Z,6.70
2018-12-23T17:11:06.382Z,6.70
2018-12-23T17:13:35.295Z,6.60
2018-12-23T17:16:04.065Z,6.70
2018-12-23T17:18:32.820Z,6.70
2018-12-23T17:21:01.586Z,6.70
2018-12-23T17:23:30.270Z,6.60
2018-12-23T17:25:59.039Z,6.60
2018-12-23T17:28:28.299Z,6.60
2018-12-23T17:30:57.161Z,6.70
2018-12-23T17:33:25.893Z,6.70
2018-12-23T17:35:54.605Z,6.60
2018-12-23T17:38:23.330Z,6.70
2018-12-23T17:40:52.051Z,6.70
2018-12-23T17:43:20.870Z,6.70
2018-12-23T17:45:49.555Z,6.70
2018-12-23T17:48:18.294Z,6.70
2018-12-23T17:50:46.964Z,6.70
2018-12-23T17:53:15.689Z,6.70
2018-12-23T17:55:44.371Z,6.70
2018-12-23T17:58:13.092Z,6.70
2018-12-23T18:00:41.916Z,6.70
2018-12-23T18:03:10.630Z,6.70
2018-12-23T18:05:39.318Z,6.70
2018-12-23T18:08:08.453Z,6.60
2018-12-23T18:10:37.478Z,6.70
2018-12-23T18:13:06.555Z,6.60
2018-12-23T18:15:35.251Z,6.70
2018-12-23T18:18:03.951Z,6.70
2018-12-23T18:20:32.640Z,6.70
2018-12-23T18:23:01.632Z,6.70
2018-12-23T18:25:30.329Z,6.60
2018-12-23T18:27:59.035Z,6.70
2018-12-23T18:30:27.729Z,6.80
2018-12-23T18:32:56.442Z,6.80
2018-12-23T18:35:25.127Z,6.80
2018-12-23T18:37:53.848Z,6.80
2018-12-23T18:40:22.548Z,6.80
2018-12-23T18:42:51.264Z,6.80
2018-12-23T18:45:19.951Z,6.70
2018-12-23T18:47:48.708Z,6.70
2018-12-23T18:50:17.352Z,6.80
2018-12-23T18:52:46.055Z,6.70
2018-12-23T18:55:14.779Z,6.70
2018-12-23T18:57:43.443Z,6.60
2018-12-23T19:00:12.223Z,6.70
2018-12-23T19:02:42.058Z,6.60
2018-12-23T19:05:10.775Z,6.60
2018-12-23T19:07:39.917Z,6.60
2018-12-23T19:10:11.715Z,6.50
2018-12-23T19:12:46.415Z,6.50
2018-12-23T19:15:27.395Z,6.50
2018-12-23T19:18:01.615Z,6.50
2018-12-23T19:20:48.479Z,6.50
2018-12-23T19:23:54.874Z,6.50
2018-12-23T19:26:32.597Z,6.60
2018-12-23T19:29:10.157Z,6.50
2018-12-23T19:32:03.279Z,6.50
2018-12-23T19:35:00.863Z,6.40
2018-12-23T19:37:38.204Z,6.50
2018-12-23T19:40:50.328Z,6.50
2018-12-23T19:43:35.000Z,6.40
2018-12-23T19:46:09.789Z,6.40
2018-12-23T19:49:01.691Z,6.40
2018-12-23T19:51:42.477Z,6.40
2018-12-23T19:54:19.880Z,6.40
2018-12-23T19:57:03.103Z,6.40
2018-12-23T19:59:56.333Z,6.30
2018-12-23T20:02:43.284Z,6.40
2018-12-23T20:05:34.704Z,6.30
2018-12-23T20:08:14.771Z,6.30
2018-12-23T20:11:01.691Z,6.30
2018-12-23T20:13:48.438Z,6.30
2018-12-23T20:16:24.870Z,6.30
2018-12-23T20:19:07.914Z,6.20
2018-12-23T20:21:54.168Z,6.20
2018-12-23T20:24:39.458Z,6.20
2018-12-23T20:27:35.557Z,6.20
2018-12-23T20:30:16.310Z,6.20
2018-12-23T20:33:14.220Z,6.20
2018-12-23T20:35:46.037Z,6.10
2018-12-23T20:38:26.809Z,6.10
2018-12-23T20:41:27.570Z,6.10
2018-12-23T20:44:13.656Z,6.10
2018-12-23T20:46:57.634Z,6.00
2018-12-23T20:50:05.966Z,6.10
2018-12-23T20:53:04.235Z,6.00
2018-12-23T20:55:58.277Z,6.10
2018-12-23T20:58:41.787Z,6.10
2018-12-23T21:01:25.436Z,6.00
2018-12-23T21:04:12.000Z,6.00
2018-12-23T21:06:49.584Z,6.00
2018-12-23T21:09:48.117Z,6.00
2018-12-23T21:12:48.089Z,6.10
2018-12-23T21:15:34.278Z,6.10
2018-12-23T21:18:08.602Z,6.00
2018-12-23T21:20:52.457Z,6.00
2018-12-23T21:23:36.173Z,6.10
2018-12-23T21:26:13.725Z,6.10
2018-12-23T21:29:02.105Z,6.10
2018-12-23T21:31:36.546Z,6.10
2018-12-23T21:34:20.410Z,6.10
2018-12-23T21:37:04.333Z,6.10
2018-12-23T21:40:10.573Z,6.10
2018-12-23T21:42:45.508Z,6.10
2018-12-23T21:45:32.158Z,6.10
2018-12-23T21:48:30.862Z,6.10
2018-12-23T21:51:05.608Z,6.10
2018-12-23T21:53:40.066Z,6.10
2018-12-23T21:56:17.637Z,6.10
2018-12-23T21:58:55.480Z,6.20
2018-12-23T22:01:46.886Z,6.10
2018-12-23T22:04:18.666Z,6.20
2018-12-23T22:06:59.009Z,6.20
2018-12-23T22:09:47.229Z,6.20
2018-12-23T22:12:27.810Z,6.20
2018-12-23T22:14:56.512Z,6.20
2018-12-23T22:17:25.202Z,6.30
2018-12-23T22:19:53.904Z,6.30
2018-12-23T22:22:22.570Z,6.30
2018-12-23T22:24:51.264Z,6.30
2018-12-23T22:27:19.936Z,6.20
2018-12-23T22:29:48.660Z,6.30
2018-12-23T22:32:17.319Z,6.30
2018-12-23T22:34:46.114Z,6.30
2018-12-23T22:37:14.795Z,6.30
2018-12-23T22:39:43.553Z,6.30
2018-12-23T22:42:12.201Z,6.20
2018-12-23T22:44:40.893Z,6.30
2018-12-23T22:47:09.582Z,6.30
2018-12-23T22:49:38.280Z,6.30
2018-12-23T22:52:06.967Z,6.30
2018-12-23T22:54:35.660Z,6.30
2018-12-23T22:57:04.345Z,6.30
2018-12-23T22:59:33.096Z,6.30
2018-12-23T23:02:01.841Z,6.30
2018-12-23T23:04:30.665Z,6.20
2018-12-23T23:06:59.371Z,6.20
2018-12-23T23:09:28.028Z,6.20
2018-12-23T23:11:56.717Z,6.20
2018-12-23T23:14:25.379Z,6.20
2018-12-23T23:16:54.083Z,6.20
2018-12-23T23:19:22.761Z,6.20
2018-12-23T23:21:51.522Z,6.20
2018-12-23T23:24:20.280Z,6.20
2018-12-23T23:26:49.015Z,6.20
2018-12-23T23:29:17.709Z,6.20
2018-12-23T23:31:46.424Z,6.20
2018-12-23T23:34:15.102Z,6.20
2018-12-23T23:36:43.813Z,6.20
2018-12-23T23:39:12.485Z,6.20
2018-12-23T23:41:41.175Z,6.20
2018-12-23T23:44:09.857Z,6.20
2018-12-23T23:46:38.557Z,6.20
2018-12-23T23:49:07.228Z,6.10
2018-12-23T23:51:35.912Z,6.10
2018-12-23T23:54:04.593Z,6.10
2018-12-23T23:56:33.285Z,6.10
2018-12-23T23:59:01.950Z,6.10
